Etusivu
METAR-TAF:

METAR-TAF

Lentoasemat :

Thulen lentotukikohta

Thule, Grönlanti

Leveyspiiri: 76-32N, Pituuspiiri: 068-42W, korkeus merenpinnasta: 77 m

Tämänhetkinen sää

Tämä raportti tehtiin 16 minuuttia sitten, kello 07.56 UTC
Tuuli 5 kn lännestä/luoteesta
Lämpötila 1°C
Kosteus 100%
Ilmanpaine 1018 hPa
Näkyvyys 10 km tai enemmän
selkeää

METAR: BGTL 140756Z AUTO 29005KT 9999 CLR 01/01 A3005 RMK AO2 SLP160 T00080008 TSNO $

Aika: 05:12 (08:12 UTC)

Sääennuste

Tämä raportti tehtiin 6 tuntia ja 35 minuuttia sitten, kello 01.37 UTC
Ennuste voimassa 14. päivästä klo 01 UTC - 15. päivään klo 07 UTC
Tuuli 9 kn pohjoisen/luoteesta
Näkyvyys 10 km tai enemmän
Muutamia pilviä 20000 ft:n korkeudessa
Ajoittain
14. päivästä klo 06 UTC - 14. päivään klo 12 UTC
Näkyvyys: 1409 m
sumua näköpiirissä

TAF: BGTL 140137Z 1401/1507 33009KT 9999 FEW200 QNH2999INS TEMPO 1406/1412 VCFG TX06/1417Z TN03/1409Z LAST NO AMDS AFT 1401 NEXT 1409

Säähavainnot ja -ennusteet yli 4000 lentoasemalta (METAR- ja TAF-raportit).

Käytössä olevat sääasemat on merkitty karttaan keltaisilla ja punaisilla pisteillä.

Aseta hiiri pisteen päälle nähdäksesi sääaseman nimen.

Klikkaa sitten nähdäksesi säähavainnot ja -ennusteet.

Kartan vaihtaminen: klikkaa mustalla rastilla varustettuja vihreitä pisteitä, niin voit zoomata sisään; viivalla varustettua vihreää pistettä, niin voit zoomata ulos tai vihreitä nuolia, niin pääset viereisille kartoille.


METAR-TAF: